Time;durP1;ratioP1;P1;durP2;ratioP2;P2;SDS_P1;SDS_P2;PMS_P1;PMS_P2;Temp;Humidity;BMP_temperature;BMP_pressure;BME280_temperature;BME280_humidity;BME280_pressure;Samples;Min_cycle;Max_cycle;Signal;HPM_P1;HPM_P2
2023/09/29 00:00:41;;;;;;;8.45;2.88;;;;;;;21.37;58.54;101507.44;4963709;28;20491;-72
2023/09/29 00:03:08;;;;;;;9.32;3.28;;;;;;;21.36;58.41;101499.63;4946492;28;20034;-69
2023/09/29 00:05:34;;;;;;;6.18;2.83;;;;;;;21.36;58.32;101500.50;4963425;28;20646;-68
2023/09/29 00:07:59;;;;;;;7.05;2.83;;;;;;;21.34;58.27;101502.41;4963312;28;20161;-69
2023/09/29 00:10:25;;;;;;;5.95;2.80;;;;;;;21.35;58.38;101509.41;4963642;28;20023;-68
2023/09/29 00:12:51;;;;;;;7.13;2.72;;;;;;;21.35;58.31;101508.56;4945448;28;20042;-68
2023/09/29 00:15:18;;;;;;;8.07;2.88;;;;;;;21.34;58.36;101496.28;4963625;28;20039;-68
2023/09/29 00:17:44;;;;;;;6.18;2.67;;;;;;;21.34;58.25;101497.09;4962878;28;20035;-69
2023/09/29 00:22:45;;;;;;;6.05;2.42;;;;;;;21.33;58.42;101490.13;4963761;28;20051;-68
2023/09/29 00:25:10;;;;;;;6.85;2.83;;;;;;;21.33;58.32;101495.44;4963552;28;20038;-70
2023/09/29 00:27:36;;;;;;;8.45;2.53;;;;;;;21.32;58.47;101491.09;4963364;28;20026;-68
2023/09/29 00:30:04;;;;;;;7.68;2.50;;;;;;;21.33;58.15;101498.09;4961411;28;20609;-69
2023/09/29 00:32:30;;;;;;;7.32;2.47;;;;;;;21.33;58.33;101490.13;4962969;28;20043;-69
2023/09/29 00:34:57;;;;;;;7.53;2.72;;;;;;;21.33;58.40;101494.59;4963177;28;20030;-68
2023/09/29 00:37:23;;;;;;;5.95;2.60;;;;;;;21.33;58.44;101490.13;4929621;28;20042;-70
2023/09/29 00:39:48;;;;;;;6.97;3.05;;;;;;;21.33;58.48;101495.44;4962441;28;20090;-71
2023/09/29 00:42:14;;;;;;;9.13;2.95;;;;;;;21.32;58.38;101485.81;4962595;28;20130;-68
2023/09/29 00:44:39;;;;;;;5.53;2.42;;;;;;;21.32;58.18;101479.66;4962848;28;20038;-69
2023/09/29 00:47:05;;;;;;;6.00;2.55;;;;;;;21.33;58.08;101481.31;4961411;28;20468;-71
2023/09/29 00:49:31;;;;;;;6.13;2.53;;;;;;;21.32;58.33;101484.97;4961460;28;20551;-71
2023/09/29 00:52:00;;;;;;;6.38;2.72;;;;;;;21.32;58.42;101471.72;4962161;28;20030;-68
2023/09/29 00:54:29;;;;;;;6.18;2.75;;;;;;;21.30;58.39;101471.84;4962472;28;20042;-70
2023/09/29 00:56:56;;;;;;;8.27;2.80;;;;;;;21.31;58.64;101470.84;4962720;28;20500;-69
2023/09/29 00:59:24;;;;;;;8.02;2.70;;;;;;;21.31;58.57;101476.16;4961791;28;20157;-71
2023/09/29 01:01:50;;;;;;;9.60;3.10;;;;;;;21.32;58.27;101477.00;4962665;28;20050;-69
2023/09/29 01:04:15;;;;;;;7.07;2.90;;;;;;;21.30;58.15;101477.16;4962692;28;20026;-69
2023/09/29 01:06:41;;;;;;;6.38;2.67;;;;;;;21.30;58.43;101471.84;4962303;28;20137;-71
2023/09/29 01:09:07;;;;;;;6.07;2.80;;;;;;;21.30;58.55;101461.25;4961912;28;20034;-68
2023/09/29 01:11:45;;;;;;;5.47;2.80;;;;;;;21.29;58.54;101464.84;4963220;28;20223;-69
2023/09/29 01:14:13;;;;;;;8.07;3.00;;;;;;;21.29;58.51;101462.19;4962394;28;20065;-68
2023/09/29 01:16:40;;;;;;;6.00;2.80;;;;;;;21.30;58.59;101455.94;4961541;28;20061;-69
2023/09/29 01:19:18;;;;;;;6.85;3.08;;;;;;;21.29;58.66;101456.91;4961891;28;20053;-68
2023/09/29 01:21:46;;;;;;;5.88;2.50;;;;;;;21.31;58.43;101449.66;4961492;28;20126;-69
2023/09/29 01:24:13;;;;;;;6.03;2.45;;;;;;;21.27;58.46;101440.28;4961905;28;20047;-71
2023/09/29 01:26:38;;;;;;;6.32;2.60;;;;;;;21.29;58.61;101451.59;4962565;28;20385;-72
2023/09/29 01:29:03;;;;;;;5.30;2.38;;;;;;;21.29;58.60;101448.13;4961027;28;20031;-68
2023/09/29 01:31:31;;;;;;;7.22;3.42;;;;;;;21.30;58.39;101444.47;4962759;28;20652;-69
2023/09/29 01:33:57;;;;;;;6.22;2.50;;;;;;;21.29;58.54;101443.63;4962687;28;20113;-68
2023/09/29 01:36:24;;;;;;;6.38;2.70;;;;;;;21.29;58.29;101437.50;4961381;28;20077;-69
2023/09/29 01:38:49;;;;;;;6.15;2.65;;;;;;;21.30;58.32;101433.88;4943665;28;20054;-70
2023/09/29 01:41:14;;;;;;;5.15;2.40;;;;;;;21.28;58.09;101427.88;4962270;28;20114;-68
2023/09/29 01:43:40;;;;;;;5.57;2.53;;;;;;;21.29;58.70;101425.09;4961238;28;20027;-68
2023/09/29 01:46:07;;;;;;;5.43;2.40;;;;;;;21.29;58.43;101417.13;4961705;28;20054;-68
2023/09/29 01:48:33;;;;;;;6.25;2.50;;;;;;;21.29;58.39;101432.22;4962061;28;20035;-69
2023/09/29 01:51:02;;;;;;;5.45;2.50;;;;;;;21.28;58.23;101431.34;4961677;28;20048;-68
2023/09/29 01:53:30;;;;;;;7.05;2.80;;;;;;;21.29;58.50;101424.25;4961679;28;20035;-68
2023/09/29 01:55:56;;;;;;;5.95;2.40;;;;;;;21.28;58.41;101419.91;4960733;28;20393;-71
2023/09/29 01:58:22;;;;;;;6.07;2.60;;;;;;;21.28;58.53;101420.75;4961303;28;20093;-69
2023/09/29 02:00:48;;;;;;;5.45;2.30;;;;;;;21.27;58.32;101421.72;4961335;28;20089;-69
2023/09/29 02:03:13;;;;;;;4.53;2.13;;;;;;;21.27;58.64;101416.44;4961910;28;20488;-71
2023/09/29 02:05:38;;;;;;;5.63;2.30;;;;;;;21.29;58.17;101408.34;4961121;28;20030;-69
2023/09/29 02:08:05;;;;;;;5.45;2.50;;;;;;;21.29;58.17;101409.19;4961415;28;20967;-70
2023/09/29 02:10:32;;;;;;;5.95;2.60;;;;;;;21.28;58.27;101398.72;4962031;28;20111;-69
2023/09/29 02:12:59;;;;;;;5.80;2.40;;;;;;;21.28;58.46;101406.66;4960723;28;20399;-68
2023/09/29 02:15:28;;;;;;;5.43;2.58;;;;;;;21.28;58.50;101406.66;4961487;28;20030;-68
2023/09/29 02:17:54;;;;;;;5.45;2.40;;;;;;;21.27;58.38;101407.63;4960236;28;20034;-70
2023/09/29 02:20:33;;;;;;;7.05;2.42;;;;;;;21.28;58.43;101407.50;4944156;28;20041;-69
2023/09/29 02:23:02;;;;;;;5.57;2.60;;;;;;;21.27;58.54;101391.72;4961037;28;20042;-69
2023/09/29 02:25:29;;;;;;;5.65;2.58;;;;;;;21.27;58.41;101397.88;4960581;28;20027;-69
2023/09/29 02:27:56;;;;;;;5.45;2.60;;;;;;;21.27;58.05;101397.00;4960809;28;20038;-69
2023/09/29 02:30:24;;;;;;;5.13;2.25;;;;;;;21.27;58.37;101387.28;4961735;28;20035;-69
2023/09/29 02:32:52;;;;;;;5.57;2.58;;;;;;;21.27;58.51;101389.06;4960656;28;20501;-69
2023/09/29 02:35:18;;;;;;;6.45;2.70;;;;;;;21.26;58.37;101390.88;4961487;28;20412;-69
2023/09/29 02:37:44;;;;;;;5.25;2.35;;;;;;;21.26;58.25;101385.59;4960762;28;20035;-68
2023/09/29 02:40:14;;;;;;;4.70;2.30;;;;;;;21.25;58.00;101378.59;4961156;28;20039;-68
2023/09/29 02:42:41;;;;;;;4.80;2.38;;;;;;;21.26;58.13;101374.97;4961172;28;20085;-68
2023/09/29 02:45:07;;;;;;;5.65;2.20;;;;;;;21.26;57.86;101374.16;4960898;28;20035;-69
2023/09/29 02:47:34;;;;;;;4.22;2.20;;;;;;;21.25;58.22;101368.00;4960951;28;20062;-68
2023/09/29 02:50:00;;;;;;;5.20;2.25;;;;;;;21.24;58.15;101363.69;4944221;28;20043;-68
2023/09/29 02:52:27;;;;;;;5.18;2.30;;;;;;;21.26;58.39;101368.84;4960896;28;20042;-69
2023/09/29 02:54:54;;;;;;;5.00;2.50;;;;;;;21.26;58.09;101363.53;4960269;28;20070;-72
2023/09/29 02:57:21;;;;;;;4.80;2.10;;;;;;;21.26;58.22;101358.25;4960643;28;20395;-72
2023/09/29 02:59:47;;;;;;;7.13;2.50;;;;;;;21.25;58.21;101352.09;4960766;28;20841;-68
2023/09/29 03:02:12;;;;;;;5.30;2.22;;;;;;;21.25;58.37;101348.59;4960931;28;20558;-68
2023/09/29 03:04:39;;;;;;;4.72;2.10;;;;;;;21.25;58.40;101345.94;4960288;28;20031;-68
2023/09/29 03:07:05;;;;;;;4.68;2.38;;;;;;;21.24;57.99;101345.13;4960546;28;20046;-72
2023/09/29 03:09:33;;;;;;;5.53;2.50;;;;;;;21.24;57.99;101350.44;4960605;28;20132;-69
2023/09/29 03:12:00;;;;;;;5.85;2.40;;;;;;;21.24;58.25;101347.78;4960332;28;20480;-71
2023/09/29 03:14:26;;;;;;;4.30;2.28;;;;;;;21.26;58.11;101345.00;4960354;28;20034;-69
2023/09/29 03:16:53;;;;;;;5.72;2.40;;;;;;;21.25;58.08;101356.56;4962840;28;20062;-70
2023/09/29 03:19:20;;;;;;;5.85;2.28;;;;;;;21.24;58.28;101352.22;4964554;28;20038;-69
2023/09/29 03:21:45;;;;;;;5.32;2.50;;;;;;;21.25;58.30;101345.94;4964751;28;20033;-68
2023/09/29 03:24:10;;;;;;;5.03;2.40;;;;;;;21.24;58.23;101342.47;4947080;28;20027;-69
2023/09/29 03:26:36;;;;;;;4.90;2.20;;;;;;;21.24;58.12;101342.47;4964761;28;20031;-71
2023/09/29 03:29:01;;;;;;;4.22;2.05;;;;;;;21.24;58.29;101331.00;4963564;28;20031;-69
2023/09/29 03:31:27;;;;;;;5.32;2.28;;;;;;;21.25;58.16;101332.69;4964213;28;20057;-69
2023/09/29 03:33:52;;;;;;;5.88;2.28;;;;;;;21.24;58.43;101318.63;4964224;28;20507;-68
2023/09/29 03:36:20;;;;;;;4.32;2.20;;;;;;;21.24;57.91;101323.91;4963641;28;20030;-69
2023/09/29 03:38:46;;;;;;;5.30;2.70;;;;;;;21.25;58.24;101320.28;4964841;28;20062;-71
2023/09/29 03:41:12;;;;;;;5.43;2.13;;;;;;;21.25;58.17;101319.44;4964436;28;20579;-72
2023/09/29 03:43:38;;;;;;;4.95;2.10;;;;;;;21.25;58.18;101309.66;4963954;28;20034;-69
2023/09/29 03:46:04;;;;;;;4.50;2.15;;;;;;;21.24;58.49;101300.06;4963648;28;20058;-69
2023/09/29 03:48:30;;;;;;;5.22;2.47;;;;;;;21.25;58.12;101299.06;4947054;28;20070;-69
2023/09/29 03:50:55;;;;;;;5.72;2.30;;;;;;;21.24;58.55;101291.25;4963541;28;20042;-68
2023/09/29 03:53:21;;;;;;;4.70;2.20;;;;;;;21.23;58.09;101298.38;4963926;28;20043;-71
2023/09/29 03:55:47;;;;;;;4.40;2.00;;;;;;;21.23;58.16;101293.06;4946171;28;20077;-68
2023/09/29 03:58:13;;;;;;;5.55;2.28;;;;;;;21.22;58.14;101288.75;4963724;28;20038;-68
2023/09/29 04:00:40;;;;;;;5.47;2.28;;;;;;;21.23;58.45;101298.38;4963897;28;20121;-69
2023/09/29 04:03:06;;;;;;;5.10;2.65;;;;;;;21.24;58.21;101292.09;4963829;28;20121;-70
2023/09/29 04:05:32;;;;;;;4.50;2.42;;;;;;;21.24;58.30;101292.09;4962607;28;20047;-70
2023/09/29 04:07:57;;;;;;;4.57;2.30;;;;;;;21.22;58.21;101283.47;4946283;28;20081;-68
2023/09/29 04:10:23;;;;;;;4.73;2.10;;;;;;;21.22;58.03;101274.66;4962775;28;20035;-69
2023/09/29 04:12:49;;;;;;;3.85;2.00;;;;;;;21.23;58.09;101279.81;4963766;28;20268;-68
2023/09/29 04:15:15;;;;;;;5.45;2.28;;;;;;;21.23;58.06;101279.81;4963172;28;20661;-69
2023/09/29 04:17:41;;;;;;;5.00;2.25;;;;;;;21.22;58.11;101280.81;4963052;28;20762;-70
2023/09/29 04:20:08;;;;;;;4.63;1.90;;;;;;;21.22;58.08;101288.75;4963219;28;20038;-69
2023/09/29 04:22:34;;;;;;;4.20;2.03;;;;;;;21.23;58.10;101285.13;4963365;28;20034;-70
2023/09/29 04:24:59;;;;;;;4.63;1.90;;;;;;;21.23;58.50;101277.16;4962825;28;20034;-68
2023/09/29 04:27:25;;;;;;;3.72;1.80;;;;;;;21.22;58.23;101267.56;4963038;28;20045;-68
2023/09/29 04:29:51;;;;;;;4.68;2.13;;;;;;;21.22;58.30;101262.25;4963084;28;20809;-69
2023/09/29 04:32:17;;;;;;;5.43;2.00;;;;;;;21.23;58.52;101263.91;4962706;28;20110;-68
2023/09/29 04:34:43;;;;;;;4.47;2.00;;;;;;;21.22;58.42;101256.97;4962361;28;20122;-71
2023/09/29 04:37:08;;;;;;;4.50;1.83;;;;;;;21.23;58.67;101263.91;4963509;28;20121;-69
2023/09/29 04:39:34;;;;;;;3.63;2.10;;;;;;;21.23;57.87;101274.53;4962285;28;20034;-70
2023/09/29 04:41:59;;;;;;;4.07;1.98;;;;;;;21.23;58.43;101265.75;4963000;28;20311;-68
2023/09/29 04:44:25;;;;;;;5.38;2.30;;;;;;;21.22;58.10;101262.25;4962909;28;20027;-71
2023/09/29 04:46:50;;;;;;;4.60;2.22;;;;;;;21.24;58.29;101259.44;4944722;28;20038;-69
2023/09/29 04:49:16;;;;;;;4.40;2.17;;;;;;;21.23;58.52;101261.25;4945348;28;20424;-71
2023/09/29 04:51:43;;;;;;;4.70;2.17;;;;;;;21.23;58.43;101266.56;4962903;28;20030;-69
2023/09/29 04:54:10;;;;;;;3.78;1.90;;;;;;;21.21;58.52;101265.88;4945031;28;20066;-71
2023/09/29 04:56:35;;;;;;;4.72;2.08;;;;;;;21.21;58.26;101268.53;4962962;28;20086;-69
2023/09/29 04:59:01;;;;;;;4.60;2.10;;;;;;;21.22;58.63;101277.31;4944546;28;20218;-70
2023/09/29 05:01:27;;;;;;;4.55;2.22;;;;;;;21.22;58.23;101270.22;4962298;28;20121;-70
2023/09/29 05:03:52;;;;;;;5.47;2.08;;;;;;;21.19;58.38;101260.69;4962915;28;20038;-68
2023/09/29 05:06:18;;;;;;;4.43;2.00;;;;;;;21.20;58.44;101262.41;4962933;28;20507;-68
2023/09/29 05:08:44;;;;;;;4.88;2.25;;;;;;;21.22;58.61;101261.41;4961725;28;20117;-70
2023/09/29 05:11:22;;;;;;;4.72;2.15;;;;;;;21.20;58.47;101262.41;4962540;28;20035;-69
2023/09/29 05:13:48;;;;;;;4.97;2.13;;;;;;;21.22;58.43;101262.25;4961371;28;20038;-68
2023/09/29 05:16:13;;;;;;;4.53;2.05;;;;;;;21.22;58.61;101258.75;4962710;28;20034;-69
2023/09/29 05:18:39;;;;;;;4.67;2.00;;;;;;;21.22;58.50;101245.50;4962157;28;20088;-68
2023/09/29 05:21:04;;;;;;;4.80;2.17;;;;;;;21.22;58.58;101242.84;4961731;28;20291;-69
2023/09/29 05:23:29;;;;;;;4.17;1.90;;;;;;;21.22;58.69;101242.84;4962865;28;20088;-68
2023/09/29 05:25:54;;;;;;;3.88;2.20;;;;;;;21.22;58.92;101243.72;4962119;28;20295;-69
2023/09/29 05:28:20;;;;;;;3.73;2.03;;;;;;;21.21;58.56;101236.72;4962692;28;20129;-68
2023/09/29 05:30:54;;;;;;;5.05;2.10;;;;;;;21.20;58.72;101249.13;4944761;28;20270;-69
2023/09/29 05:33:19;;;;;;;;;;;;;;;21.26;58.50;101238.97;4963876;28;20109;-68
2023/09/29 05:35:46;;;;;;;4.13;2.05;;;;;;;21.26;58.44;101226.53;4961693;28;20359;-69
2023/09/29 05:38:12;;;;;;;3.85;1.90;;;;;;;21.24;58.43;101224.97;4961470;28;20042;-71
2023/09/29 05:40:38;;;;;;;3.97;2.10;;;;;;;21.23;58.96;101233.94;4961567;28;20097;-71
2023/09/29 05:43:04;;;;;;;4.55;2.10;;;;;;;21.22;58.38;101241.06;4961968;28;20062;-68
2023/09/29 05:45:29;;;;;;;4.38;2.13;;;;;;;21.22;58.62;101234.91;4961818;28;20035;-69
2023/09/29 05:47:56;;;;;;;3.63;1.67;;;;;;;21.21;58.80;101239.38;4961863;28;20037;-68
2023/09/29 05:50:21;;;;;;;4.78;2.20;;;;;;;21.21;58.92;101242.03;4960452;28;20106;-69
2023/09/29 05:52:47;;;;;;;4.10;1.73;;;;;;;21.20;58.81;101245.63;4961725;28;20088;-69
2023/09/29 05:55:13;;;;;;;3.92;1.90;;;;;;;21.20;58.83;101246.50;4944393;28;20122;-72
2023/09/29 05:57:38;;;;;;;3.63;1.98;;;;;;;21.20;58.81;101250.94;4960882;28;20051;-71
2023/09/29 06:00:05;;;;;;;4.28;2.05;;;;;;;21.22;58.95;101242.84;4945079;28;20035;-70
2023/09/29 06:02:31;;;;;;;4.63;2.10;;;;;;;21.20;58.81;101243.84;4961722;28;20039;-68
2023/09/29 06:04:56;;;;;;;3.88;1.90;;;;;;;21.21;58.71;101244.66;4961375;28;20053;-68
2023/09/29 06:07:21;;;;;;;4.37;1.90;;;;;;;21.22;59.03;101245.50;4961703;28;20038;-70
2023/09/29 06:09:47;;;;;;;4.35;1.98;;;;;;;21.21;59.14;101244.66;4961532;28;20738;-69
2023/09/29 06:12:12;;;;;;;3.97;2.10;;;;;;;21.21;58.81;101260.56;4960700;28;20414;-70
2023/09/29 06:14:37;;;;;;;4.00;1.85;;;;;;;21.20;58.85;101259.75;4944498;28;20039;-69
2023/09/29 06:17:03;;;;;;;4.43;2.20;;;;;;;21.22;59.00;101262.25;4959975;28;20045;-69
2023/09/29 06:19:28;;;;;;;4.18;1.90;;;;;;;21.22;59.13;101264.06;4961670;28;20479;-71
2023/09/29 06:21:53;;;;;;;5.07;2.00;;;;;;;21.20;59.20;101262.41;4961184;28;20563;-69
2023/09/29 06:24:19;;;;;;;4.00;1.70;;;;;;;21.21;58.96;101260.56;4961038;28;20611;-72
2023/09/29 06:26:44;;;;;;;4.78;1.90;;;;;;;21.22;58.89;101261.41;4961002;28;20038;-68
2023/09/29 06:29:09;;;;;;;4.93;2.13;;;;;;;21.22;59.03;101251.66;4961115;28;20035;-69
2023/09/29 06:31:35;;;;;;;4.10;1.97;;;;;;;21.21;59.05;101249.97;4942856;28;20499;-67
2023/09/29 06:34:00;;;;;;;3.40;1.60;;;;;;;21.23;58.84;101244.53;4943063;28;20283;-69
2023/09/29 06:36:25;;;;;;;7.20;1.98;;;;;;;21.22;59.12;101253.44;4943537;28;20066;-68
2023/09/29 06:38:50;;;;;;;5.15;2.03;;;;;;;21.22;59.16;101253.44;4960274;28;20027;-69
2023/09/29 06:41:16;;;;;;;4.77;2.33;;;;;;;21.23;59.51;101258.63;4961737;28;20023;-68
2023/09/29 06:43:43;;;;;;;3.90;1.77;;;;;;;21.23;59.13;101258.63;4961069;28;20272;-70
2023/09/29 06:46:08;;;;;;;4.60;1.83;;;;;;;21.23;59.25;101265.75;4960534;28;20026;-69
2023/09/29 06:48:34;;;;;;;4.78;1.73;;;;;;;21.23;59.17;101271.88;4944052;28;20979;-70
2023/09/29 06:50:59;;;;;;;3.50;1.80;;;;;;;21.23;59.16;101266.56;4942367;28;20544;-69
2023/09/29 06:53:27;;;;;;;4.22;1.90;;;;;;;21.21;59.12;101268.53;4960595;28;20039;-68
2023/09/29 06:55:53;;;;;;;4.20;1.90;;;;;;;21.21;59.18;101273.81;4960265;28;20050;-68
2023/09/29 06:58:18;;;;;;;3.90;1.67;;;;;;;21.22;59.37;101272.88;4960750;28;20033;-68
2023/09/29 07:00:44;;;;;;;4.68;1.67;;;;;;;21.24;59.50;101272.69;4959757;28;20030;-70
2023/09/29 07:03:12;;;;;;;3.42;1.70;;;;;;;21.22;59.51;101269.34;4961257;28;20049;-71
2023/09/29 07:05:38;;;;;;;3.65;2.00;;;;;;;21.19;59.96;101273.97;4960355;28;20497;-68
2023/09/29 07:08:04;;;;;;;5.50;2.00;;;;;;;21.17;59.70;101270.63;4960036;28;20110;-70
2023/09/29 07:10:29;;;;;;;3.80;1.80;;;;;;;21.17;59.67;101280.34;4960845;28;20109;-70
2023/09/29 07:12:54;;;;;;;4.60;1.87;;;;;;;21.17;59.78;101283.00;4960842;28;20030;-72
2023/09/29 07:15:19;;;;;;;3.63;2.10;;;;;;;21.15;59.90;101277.00;4960122;28;20391;-70
2023/09/29 07:17:45;;;;;;;5.10;2.00;;;;;;;21.18;60.16;101271.44;4960505;28;20030;-71
2023/09/29 07:20:12;;;;;;;4.45;1.90;;;;;;;21.19;60.12;101265.19;4960254;28;20550;-72
2023/09/29 07:22:38;;;;;;;3.40;1.60;;;;;;;21.19;59.94;101265.19;4943198;28;20077;-72
2023/09/29 07:25:03;;;;;;;5.05;1.80;;;;;;;21.19;60.08;101268.66;4960603;28;20121;-69
2023/09/29 07:27:29;;;;;;;4.28;2.03;;;;;;;21.20;59.93;101280.09;4960436;28;20042;-70
2023/09/29 07:29:54;;;;;;;5.07;1.70;;;;;;;21.18;59.85;101285.53;4960992;28;20035;-71
2023/09/29 07:32:20;;;;;;;3.90;1.80;;;;;;;21.20;59.87;101280.09;4961057;28;20035;-69
2023/09/29 07:34:45;;;;;;;4.13;1.80;;;;;;;21.22;59.94;101285.25;4960882;28;20391;-71
2023/09/29 07:37:10;;;;;;;4.15;1.80;;;;;;;21.22;60.36;101285.25;4961298;28;20061;-67
2023/09/29 07:39:35;;;;;;;3.40;1.80;;;;;;;21.22;60.08;101282.59;4959939;28;20229;-70
2023/09/29 07:42:01;;;;;;;5.13;1.80;;;;;;;21.22;60.16;101288.75;4960073;28;20323;-69
2023/09/29 07:44:26;;;;;;;5.70;1.90;;;;;;;21.21;60.42;101281.78;4960159;28;20078;-71
2023/09/29 07:46:53;;;;;;;5.80;2.27;;;;;;;21.22;60.34;101279.94;4960438;28;20284;-68
2023/09/29 07:49:20;;;;;;;9.90;3.63;;;;;;;21.21;61.74;101289.72;4959948;28;20271;-68
2023/09/29 07:51:45;;;;;;;6.45;2.90;;;;;;;21.23;61.71;101286.94;4960367;28;20484;-68
2023/09/29 07:54:11;;;;;;;11.45;3.55;;;;;;;21.24;62.34;101291.25;4960876;28;20037;-70
2023/09/29 07:56:36;;;;;;;9.77;3.38;;;;;;;21.25;62.41;101295.59;4959428;28;20130;-71
2023/09/29 07:59:02;;;;;;;11.57;3.67;;;;;;;21.24;62.92;101293.91;4959961;28;20031;-69
2023/09/29 08:01:27;;;;;;;8.05;3.55;;;;;;;21.24;62.53;101294.75;4961063;28;20067;-71
2023/09/29 08:03:53;;;;;;;9.25;3.10;;;;;;;21.24;63.01;101294.75;4963104;28;20499;-68
2023/09/29 08:06:21;;;;;;;9.15;3.28;;;;;;;21.25;62.81;101296.41;4963921;28;20518;-69
2023/09/29 08:08:47;;;;;;;9.18;3.20;;;;;;;21.25;63.05;101296.41;4964941;28;20121;-68
2023/09/29 08:11:13;;;;;;;9.82;3.42;;;;;;;21.28;62.54;101309.41;4948149;28;20033;-73
2023/09/29 08:13:39;;;;;;;9.18;3.33;;;;;;;21.32;62.74;101310.81;4963592;28;20027;-74
2023/09/29 08:16:04;;;;;;;9.25;3.28;;;;;;;21.35;62.52;101310.56;4965014;28;20027;-72
2023/09/29 08:18:29;;;;;;;6.82;3.00;;;;;;;21.37;62.44;101319.22;4963365;28;20035;-73
2023/09/29 08:20:55;;;;;;;7.88;2.42;;;;;;;21.41;62.19;101324.25;4963415;28;20030;-71
2023/09/29 08:23:20;;;;;;;8.50;2.70;;;;;;;21.43;62.49;101327.59;4964341;28;20061;-72
2023/09/29 08:25:46;;;;;;;6.78;2.90;;;;;;;21.40;62.81;101331.38;4965931;28;20496;-76
2023/09/29 08:28:13;;;;;;;8.77;3.17;;;;;;;21.42;62.79;101339.19;4965792;28;20281;-71
2023/09/29 08:30:39;;;;;;;7.43;2.50;;;;;;;21.47;62.53;101339.63;4929095;28;20043;-69
2023/09/29 08:33:04;;;;;;;7.05;2.75;;;;;;;21.48;62.55;101339.50;4963697;28;20411;-70
2023/09/29 08:35:30;;;;;;;8.60;2.80;;;;;;;21.52;62.60;101346.25;4741701;28;23280;-69
2023/09/29 08:37:56;;;;;;;7.60;2.65;;;;;;;21.54;62.08;101344.28;3512704;28;10000366;-68
2023/09/29 08:40:21;;;;;;;10.05;2.95;;;;;;;21.58;62.06;101352.81;4040422;28;71197;-72
2023/09/29 08:42:49;;;;;;;9.05;3.13;;;;;;;21.59;62.21;101346.53;4508315;28;20517;-67
2023/09/29 08:45:17;;;;;;;8.27;2.65;;;;;;;21.60;61.91;101356.16;3393459;28;10110056;-66
2023/09/29 08:47:49;;;;;;;8.02;3.10;;;;;;;21.60;62.30;101357.97;3829594;29;22471;-68
2023/09/29 08:50:16;;;;;;;6.80;2.65;;;;;;;21.62;62.07;101350.72;2508830;28;10005678;-75
2023/09/29 08:52:46;;;;;;;9.13;2.95;;;;;;;21.62;61.74;101363.97;4945199;28;20034;-77
2023/09/29 08:55:12;;;;;;;7.40;2.60;;;;;;;21.57;62.14;101367.06;4963621;28;20039;-71
2023/09/29 08:57:41;;;;;;;6.20;2.30;;;;;;;21.61;62.50;101363.13;4963593;28;20051;-71
2023/09/29 09:00:12;;;;;;;11.27;2.53;;;;;;;21.62;61.92;101359.53;4962810;28;20034;-70
2023/09/29 09:02:38;;;;;;;8.40;2.47;;;;;;;21.65;61.91;101359.25;4964248;28;20377;-70
2023/09/29 09:05:03;;;;;;;7.07;2.70;;;;;;;21.67;61.95;101354.66;4964071;28;20112;-73
2023/09/29 09:07:29;;;;;;;5.93;2.72;;;;;;;21.70;61.93;101369.47;4965552;28;20031;-74
2023/09/29 09:09:55;;;;;;;7.20;2.92;;;;;;;21.69;61.75;101370.44;4969428;28;20555;-76
2023/09/29 09:12:37;;;;;;;7.60;2.58;;;;;;;21.70;62.08;101369.47;4967682;28;20108;-75
2023/09/29 09:15:04;;;;;;;9.23;2.40;;;;;;;21.68;61.94;101364.28;4972332;28;20529;-73
2023/09/29 09:17:34;;;;;;;9.10;2.50;;;;;;;21.65;61.70;101372.53;4965616;28;20496;-69
2023/09/29 09:20:00;;;;;;;6.90;2.15;;;;;;;21.60;62.10;101374.72;4962182;28;20043;-73
2023/09/29 09:22:27;;;;;;;7.50;2.60;;;;;;;21.65;61.50;101376.97;4963845;28;20035;-72
2023/09/29 09:25:00;;;;;;;8.65;2.17;;;;;;;21.66;61.37;101387.44;4947421;28;20039;-70
2023/09/29 09:27:26;;;;;;;6.38;2.30;;;;;;;21.70;61.32;101386.22;4964757;28;20074;-73
2023/09/29 09:29:51;;;;;;;6.03;2.13;;;;;;;21.71;61.33;101397.66;4964514;28;20041;-70
2023/09/29 09:32:27;;;;;;;6.68;2.40;;;;;;;21.69;61.12;101389.81;4963711;28;20031;-70
2023/09/29 09:34:52;;;;;;;8.05;2.53;;;;;;;21.71;60.92;101387.91;4963567;28;20030;-71
2023/09/29 09:37:28;;;;;;;6.57;1.98;;;;;;;21.70;61.36;101393.34;4947581;28;20077;-71
2023/09/29 09:39:59;;;;;;;5.55;2.30;;;;;;;21.71;60.72;101389.69;4965297;28;20074;-83
2023/09/29 09:42:26;;;;;;;5.75;1.90;;;;;;;21.64;61.34;101401.84;4970425;28;20038;-82
2023/09/29 09:44:57;;;;;;;5.75;2.15;;;;;;;21.64;61.47;101401.84;4966588;28;20065;-73
2023/09/29 09:47:25;;;;;;;7.78;2.45;;;;;;;21.68;61.21;101401.44;4962878;28;20041;-72
2023/09/29 09:49:55;;;;;;;6.22;2.05;;;;;;;21.71;61.34;101405.59;4928659;28;20070;-73
2023/09/29 09:52:26;;;;;;;8.77;2.30;;;;;;;21.72;61.00;101409.94;4962466;28;20105;-73
2023/09/29 09:54:57;;;;;;;8.80;2.25;;;;;;;21.73;60.64;101411.63;4931003;28;20046;-72
2023/09/29 09:57:33;;;;;;;5.10;2.20;;;;;;;21.72;60.75;101420.56;4945085;28;20118;-72
2023/09/29 10:00:08;;;;;;;6.32;2.28;;;;;;;21.71;60.78;101425.03;4929674;28;20134;-73
2023/09/29 10:02:47;;;;;;;8.82;2.70;;;;;;;21.71;60.87;101425.03;4960427;28;20066;-71
2023/09/29 10:05:16;;;;;;;7.97;2.50;;;;;;;21.70;60.43;101431.31;4944306;28;20043;-75
2023/09/29 10:08:02;;;;;;;6.88;2.50;;;;;;;21.69;60.95;101431.44;4961464;28;20096;-72
2023/09/29 10:10:33;;;;;;;4.78;1.92;;;;;;;21.70;60.47;101427.81;4945161;28;20038;-72
2023/09/29 10:13:00;;;;;;;9.73;2.70;;;;;;;21.72;60.99;101426.69;4962456;28;20026;-72
2023/09/29 10:15:29;;;;;;;8.98;2.28;;;;;;;21.74;61.19;101434.53;4962173;28;20038;-72
2023/09/29 10:17:58;;;;;;;5.05;2.30;;;;;;;21.74;61.08;101438.00;4962474;28;20054;-72
2023/09/29 10:20:26;;;;;;;6.90;1.95;;;;;;;21.77;61.04;101436.06;4961514;28;20506;-69
2023/09/29 10:23:15;;;;;;;5.30;2.05;;;;;;;21.74;60.80;101427.38;4960887;28;20038;-72
2023/09/29 10:25:44;;;;;;;7.07;2.40;;;;;;;21.73;61.33;101435.50;4961646;28;21483;-70
2023/09/29 10:28:12;;;;;;;6.22;2.25;;;;;;;21.70;61.58;101439.25;4929356;28;20031;-73
2023/09/29 10:30:39;;;;;;;9.82;2.15;;;;;;;21.69;61.56;101440.22;4961485;28;20058;-72
2023/09/29 10:33:11;;;;;;;8.43;2.60;;;;;;;21.69;61.14;101436.75;4963298;28;20042;-75
2023/09/29 10:36:02;;;;;;;8.40;2.10;;;;;;;21.69;61.08;101442.03;4962938;28;20042;-80
2023/09/29 10:38:29;;;;;;;5.53;2.00;;;;;;;21.65;61.43;101449.44;4945604;28;20080;-76
2023/09/29 10:40:57;;;;;;;5.60;2.17;;;;;;;21.63;61.59;101455.84;4960925;28;20488;-70
2023/09/29 10:43:24;;;;;;;6.10;2.13;;;;;;;21.59;61.75;101452.63;4961056;28;20125;-72
2023/09/29 10:45:50;;;;;;;4.38;1.90;;;;;;;21.56;61.97;101453.72;4960691;28;20145;-70
2023/09/29 10:48:19;;;;;;;6.00;2.03;;;;;;;21.56;61.71;101451.06;4961776;28;20087;-70
2023/09/29 10:50:49;;;;;;;5.05;2.17;;;;;;;21.55;62.57;101453.84;4961334;28;20546;-71
2023/09/29 10:53:17;;;;;;;4.50;1.90;;;;;;;21.55;62.40;101457.34;4943587;28;20057;-71
2023/09/29 10:55:48;;;;;;;7.30;2.50;;;;;;;21.52;62.38;101462.94;4961645;28;20034;-70
2023/09/29 10:58:15;;;;;;;6.10;2.35;;;;;;;21.61;62.79;101465.75;4926640;28;20039;-73
2023/09/29 11:00:47;;;;;;;5.75;2.20;;;;;;;21.63;62.72;101477.06;4961604;28;20031;-72
2023/09/29 11:03:17;;;;;;;6.72;2.95;;;;;;;21.68;62.51;101474.84;4962489;28;20109;-73
2023/09/29 11:05:53;;;;;;;8.23;2.40;;;;;;;21.69;62.43;101469.41;4960149;28;20046;-74
2023/09/29 11:08:20;;;;;;;7.72;2.72;;;;;;;21.72;61.88;101470.97;4944001;28;20037;-71
2023/09/29 11:10:53;;;;;;;9.02;2.60;;;;;;;21.73;61.76;101472.66;4929197;28;20138;-72
2023/09/29 11:13:19;;;;;;;5.97;2.50;;;;;;;21.76;61.58;101472.34;4943220;28;20039;-73
2023/09/29 11:15:44;;;;;;;6.18;2.42;;;;;;;21.78;61.56;101475.75;4961554;28;20047;-73
2023/09/29 11:18:10;;;;;;;6.80;2.80;;;;;;;21.80;61.08;101480.91;4961047;28;20030;-72
2023/09/29 11:20:35;;;;;;;7.30;2.25;;;;;;;21.81;61.45;101474.63;4961372;28;20352;-73
2023/09/29 11:23:06;;;;;;;7.82;2.67;;;;;;;21.80;61.06;101478.25;4961115;28;20041;-74
2023/09/29 11:25:45;;;;;;;6.40;2.03;;;;;;;21.80;60.94;101483.56;4963005;28;20060;-73